createdAt,value
2022-11-10T00:03:29.707Z,99.75
2022-11-10T00:08:49.930Z,99.93
2022-11-10T00:14:28.977Z,100.00
2022-11-10T00:19:49.745Z,100.00
2022-11-10T00:25:10.759Z,100.00
2022-11-10T00:30:30.961Z,100.00
2022-11-10T00:35:51.109Z,100.00
2022-11-10T00:41:11.751Z,100.00
2022-11-10T00:46:32.152Z,100.00
2022-11-10T00:51:52.448Z,100.00
2022-11-10T00:57:12.962Z,100.00
2022-11-10T01:02:43.256Z,100.00
2022-11-10T01:08:03.622Z,100.00
2022-11-10T01:13:23.957Z,99.74
2022-11-10T01:18:44.508Z,99.55
2022-11-10T01:24:04.888Z,99.58
2022-11-10T01:29:25.190Z,99.45
2022-11-10T01:34:45.709Z,99.25
2022-11-10T01:40:06.393Z,99.01
2022-11-10T01:45:36.781Z,98.71
2022-11-10T01:51:01.664Z,98.92
2022-11-10T01:56:24.265Z,99.02
2022-11-10T02:01:48.680Z,98.55
2022-11-10T02:07:11.015Z,98.58
2022-11-10T02:12:38.584Z,98.32
2022-11-10T02:17:59.118Z,98.23
2022-11-10T02:23:31.496Z,97.85
2022-11-10T02:28:53.301Z,97.57
2022-11-10T02:34:13.660Z,97.89
2022-11-10T02:39:33.747Z,97.80
2022-11-10T02:44:54.988Z,97.82
2022-11-10T02:50:15.646Z,97.69
2022-11-10T02:55:52.448Z,97.85
2022-11-10T03:01:17.383Z,97.88
2022-11-10T03:06:43.611Z,98.06
2022-11-10T03:12:06.333Z,98.37
2022-11-10T03:17:26.703Z,98.31
2022-11-10T03:22:47.301Z,98.39
2022-11-10T03:28:07.749Z,98.08
2022-11-10T03:33:28.198Z,98.14
2022-11-10T03:38:48.893Z,97.97
2022-11-10T03:44:09.684Z,97.79
2022-11-10T03:49:30.658Z,97.82
2022-11-10T03:54:51.127Z,97.58
2022-11-10T04:00:14.804Z,97.65
2022-11-10T04:05:53.488Z,97.65
2022-11-10T04:11:33.890Z,97.21
2022-11-10T04:16:54.942Z,97.35
2022-11-10T04:22:35.314Z,97.55
2022-11-10T04:27:56.210Z,97.45
2022-11-10T04:33:16.443Z,97.64
2022-11-10T04:38:37.371Z,97.92
2022-11-10T04:43:59.424Z,98.19
2022-11-10T04:49:19.692Z,98.12
2022-11-10T04:54:40.114Z,98.08
2022-11-10T05:00:00.749Z,98.12
2022-11-10T05:05:21.240Z,98.04
2022-11-10T05:10:41.551Z,98.15
2022-11-10T05:16:03.319Z,98.06
2022-11-10T05:21:23.705Z,97.95
2022-11-10T05:26:43.797Z,97.84
2022-11-10T05:32:04.229Z,97.83
2022-11-10T05:37:24.570Z,97.67
2022-11-10T05:42:52.819Z,97.66
2022-11-10T05:48:13.106Z,97.65
2022-11-10T05:53:35.992Z,97.77
2022-11-10T05:58:56.255Z,97.73
2022-11-10T06:04:16.873Z,97.60
2022-11-10T06:09:38.146Z,97.83
2022-11-10T06:14:58.982Z,97.99
2022-11-10T06:20:20.131Z,97.77
2022-11-10T06:25:41.737Z,98.17
2022-11-10T06:31:01.973Z,97.95
2022-11-10T06:36:22.675Z,98.11
2022-11-10T06:41:43.066Z,98.07
2022-11-10T06:47:03.255Z,98.32
2022-11-10T06:52:26.644Z,98.19
2022-11-10T06:57:46.986Z,98.16
2022-11-10T07:03:10.317Z,98.18
2022-11-10T07:08:30.826Z,98.27
2022-11-10T07:13:51.304Z,98.09
2022-11-10T07:19:11.650Z,98.25
2022-11-10T07:24:32.798Z,98.19
2022-11-10T07:29:53.335Z,98.12
2022-11-10T07:35:13.540Z,97.94
2022-11-10T07:40:33.777Z,97.96
2022-11-10T07:45:54.358Z,97.71
2022-11-10T07:51:15.100Z,97.45
2022-11-10T07:56:35.908Z,97.30
2022-11-10T08:01:56.114Z,96.95
2022-11-10T08:07:16.867Z,97.01
2022-11-10T08:12:37.371Z,97.26
2022-11-10T08:18:05.700Z,97.29
2022-11-10T08:23:26.183Z,96.68
2022-11-10T08:28:46.871Z,96.82
2022-11-10T08:34:07.086Z,96.48
2022-11-10T08:39:38.508Z,96.48
2022-11-10T08:44:59.951Z,95.34
2022-11-10T08:50:20.268Z,95.68
2022-11-10T08:55:41.434Z,95.34
2022-11-10T09:01:02.124Z,94.84
2022-11-10T09:06:22.107Z,94.77
2022-11-10T09:11:42.671Z,94.79
2022-11-10T09:17:03.283Z,94.25
2022-11-10T09:22:24.055Z,93.79
2022-11-10T09:27:44.478Z,93.91
2022-11-10T09:33:04.811Z,93.99
2022-11-10T09:38:25.344Z,94.37
2022-11-10T09:43:51.331Z,94.51
2022-11-10T09:49:24.187Z,94.62
2022-11-10T09:55:02.300Z,94.92
2022-11-10T10:00:23.207Z,94.55
2022-11-10T10:06:02.641Z,93.78
2022-11-10T10:11:36.739Z,93.98
2022-11-10T10:17:38.335Z,93.92
2022-11-10T10:23:46.752Z,93.75
2022-11-10T10:29:18.857Z,94.46
2022-11-10T10:34:39.605Z,94.37
2022-11-10T10:39:59.994Z,94.46
2022-11-10T10:45:29.264Z,93.90
2022-11-10T10:50:50.442Z,94.21
2022-11-10T10:56:19.202Z,93.57
2022-11-10T11:01:40.560Z,93.75
2022-11-10T11:07:19.380Z,93.61
2022-11-10T11:12:39.895Z,93.98
2022-11-10T11:18:05.405Z,93.57
2022-11-10T11:23:56.976Z,93.31
2022-11-10T11:29:42.605Z,93.74
2022-11-10T11:35:41.718Z,93.34
2022-11-10T11:41:15.449Z,92.68
2022-11-10T11:46:48.942Z,93.36
2022-11-10T11:52:21.764Z,93.46
2022-11-10T11:57:53.961Z,93.17
2022-11-10T12:03:32.147Z,93.10
2022-11-10T12:08:56.723Z,92.80
2022-11-10T12:14:46.301Z,93.19
2022-11-10T12:20:45.741Z,93.36
2022-11-10T12:26:12.108Z,93.40
2022-11-10T12:31:35.490Z,93.01
2022-11-10T12:36:57.726Z,92.71
2022-11-10T12:42:23.115Z,92.99
2022-11-10T12:47:46.175Z,92.36
2022-11-10T12:53:48.163Z,91.28
2022-11-10T12:59:20.749Z,90.89
2022-11-10T13:04:41.439Z,90.80
2022-11-10T13:21:52.400Z,90.21
2022-11-10T13:39:16.218Z,89.79
2022-11-10T14:34:47.553Z,89.71
2022-11-10T14:46:31.153Z,89.54
2022-11-10T14:52:02.527Z,90.25
2022-11-10T14:57:37.401Z,90.12
2022-11-10T15:02:58.872Z,90.13
2022-11-10T15:08:19.982Z,90.50
2022-11-10T15:13:41.036Z,90.48
2022-11-10T15:19:22.887Z,90.36
2022-11-10T15:24:45.550Z,90.65
2022-11-10T15:30:23.105Z,90.57
2022-11-10T15:35:43.228Z,90.43
2022-11-10T15:41:10.931Z,90.88
2022-11-10T15:46:31.935Z,90.71
2022-11-10T15:51:57.602Z,90.60
2022-11-10T15:57:19.263Z,91.00
2022-11-10T16:02:40.767Z,91.21
2022-11-10T16:08:00.954Z,91.02
2022-11-10T16:13:28.651Z,91.28
2022-11-10T16:18:49.159Z,91.26
2022-11-10T16:24:09.440Z,91.52
2022-11-10T16:29:31.696Z,91.82
2022-11-10T16:34:52.365Z,92.06
2022-11-10T16:40:17.744Z,92.19
2022-11-10T16:45:42.994Z,92.49
2022-11-10T16:51:10.061Z,92.44
2022-11-10T16:56:34.069Z,92.06
2022-11-10T17:01:55.217Z,92.10
2022-11-10T17:13:15.347Z,92.14
2022-11-10T17:29:55.844Z,92.14
2022-11-10T17:35:26.354Z,92.22
2022-11-10T17:40:47.145Z,91.95
2022-11-10T17:46:07.642Z,92.07
2022-11-10T17:51:28.293Z,91.97
2022-11-10T17:56:48.629Z,92.07
2022-11-10T18:02:11.473Z,91.90
2022-11-10T18:07:35.351Z,92.17
2022-11-10T18:12:55.794Z,91.80
2022-11-10T18:18:17.736Z,92.07
2022-11-10T18:23:39.565Z,91.93
2022-11-10T18:29:07.223Z,92.07
2022-11-10T18:34:28.145Z,92.33
2022-11-10T18:39:49.387Z,92.57
2022-11-10T18:45:11.250Z,92.50
2022-11-10T18:50:31.842Z,92.76
2022-11-10T18:55:58.538Z,92.63
2022-11-10T19:01:20.513Z,92.48
2022-11-10T19:06:44.104Z,92.66
2022-11-10T19:12:07.434Z,92.62
2022-11-10T19:17:30.351Z,92.13
2022-11-10T19:22:51.208Z,92.42
2022-11-10T19:28:11.688Z,92.01
2022-11-10T19:33:37.497Z,91.82
2022-11-10T19:38:57.976Z,91.85
2022-11-10T19:44:19.342Z,92.11
2022-11-10T19:49:40.113Z,92.26
2022-11-10T19:55:00.390Z,92.77
2022-11-10T20:00:21.041Z,92.82
2022-11-10T20:05:43.301Z,92.87
2022-11-10T20:11:10.581Z,93.22
2022-11-10T20:16:41.718Z,93.56
2022-11-10T20:22:01.858Z,93.73
2022-11-10T20:27:21.958Z,93.79
2022-11-10T20:32:50.467Z,93.93
2022-11-10T20:38:11.399Z,93.88
2022-11-10T20:43:36.625Z,94.39
2022-11-10T20:49:01.212Z,94.36
2022-11-10T20:54:27.679Z,94.57
2022-11-10T20:59:48.381Z,94.22
2022-11-10T21:05:13.883Z,94.15
2022-11-10T21:10:34.420Z,94.25
2022-11-10T21:15:57.816Z,94.32
2022-11-10T21:21:22.052Z,94.15
2022-11-10T21:26:55.810Z,93.78
2022-11-10T21:32:16.977Z,93.26
2022-11-10T21:37:38.901Z,92.98
2022-11-10T21:42:59.556Z,92.35
2022-11-10T21:48:19.608Z,92.47
2022-11-10T21:53:41.862Z,92.59
2022-11-10T21:59:02.641Z,92.36
2022-11-10T22:04:23.457Z,92.37
2022-11-10T22:10:02.742Z,92.43
2022-11-10T22:15:42.008Z,92.91
2022-11-10T22:21:04.031Z,93.01
2022-11-10T22:26:24.186Z,93.22
2022-11-10T22:31:44.658Z,93.57
2022-11-10T22:37:04.858Z,93.49
2022-11-10T22:42:43.550Z,93.55
2022-11-10T22:48:22.483Z,93.56
2022-11-10T22:53:43.426Z,92.81
2022-11-10T22:59:03.833Z,92.24
2022-11-10T23:04:23.865Z,92.24
2022-11-10T23:09:45.012Z,92.21
2022-11-10T23:15:05.850Z,92.09
2022-11-10T23:20:26.038Z,91.58
2022-11-10T23:25:55.622Z,91.78
2022-11-10T23:31:19.199Z,92.12
2022-11-10T23:42:26.898Z,93.36
2022-11-10T23:47:47.973Z,93.43
2022-11-10T23:53:08.372Z,93.10
2022-11-10T23:58:29.254Z,92.70
